臺中航空站 - ATIS

METAR RCMQ 141500Z 05002KT 6000 FEW010 16/15 Q1020 RMK A3012=

站台狀態:Online
最後更新:2019-12-14 23:30:02